createdAt,value
2022-08-09T00:00:05.925Z,21.59
2022-08-09T00:02:34.219Z,21.60
2022-08-09T00:06:19.590Z,21.58
2022-08-09T00:07:44.885Z,21.57
2022-08-09T00:10:03.069Z,21.56
2022-08-09T00:12:34.546Z,21.55
2022-08-09T00:15:06.727Z,21.56
2022-08-09T00:18:09.413Z,21.51
2022-08-09T00:19:59.455Z,21.43
2022-08-09T00:22:35.088Z,21.35
2022-08-09T00:24:56.064Z,21.26
2022-08-09T00:27:23.505Z,21.23
2022-08-09T00:30:23.722Z,21.21
2022-08-09T00:32:25.485Z,21.21
2022-08-09T00:34:52.423Z,21.21
2022-08-09T00:37:20.881Z,21.18
2022-08-09T00:40:09.172Z,21.18
2022-08-09T00:44:14.086Z,21.19
2022-08-09T00:44:48.615Z,21.23
2022-08-09T00:47:17.217Z,21.29
2022-08-09T00:49:55.087Z,21.32
2022-08-09T00:52:17.619Z,21.29
2022-08-09T00:54:48.153Z,21.20
2022-08-09T00:57:33.875Z,21.12
2022-08-09T00:59:52.534Z,21.10
2022-08-09T01:02:25.366Z,21.09
2022-08-09T01:05:21.976Z,21.02
2022-08-09T01:08:06.641Z,20.98
2022-08-09T01:10:52.849Z,20.96
2022-08-09T01:13:53.564Z,20.99
2022-08-09T01:16:12.818Z,20.96
2022-08-09T01:18:47.489Z,20.89
2022-08-09T01:21:41.312Z,20.84
2022-08-09T01:24:31.239Z,20.84
2022-08-09T01:27:12.045Z,20.87
2022-08-09T01:30:08.393Z,20.88
2022-08-09T01:32:45.964Z,20.88
2022-08-09T01:35:38.327Z,20.92
2022-08-09T01:38:15.548Z,21.01
2022-08-09T01:41:14.595Z,21.10
2022-08-09T01:43:52.560Z,21.14
2022-08-09T01:46:27.450Z,21.17
2022-08-09T01:49:10.484Z,21.18
2022-08-09T01:51:53.861Z,21.19
2022-08-09T01:54:32.982Z,21.20
2022-08-09T01:57:30.992Z,21.20
2022-08-09T02:00:34.468Z,21.19
2022-08-09T02:02:50.586Z,21.17
2022-08-09T02:05:35.524Z,21.17
2022-08-09T02:08:35.656Z,21.16
2022-08-09T02:10:38.416Z,21.13
2022-08-09T02:13:11.611Z,21.10
2022-08-09T02:15:49.656Z,21.10
2022-08-09T02:18:25.197Z,21.09
2022-08-09T02:21:08.124Z,21.10
2022-08-09T02:23:54.826Z,21.12
2022-08-09T02:26:28.560Z,21.15
2022-08-09T02:29:00.431Z,21.20
2022-08-09T02:31:36.454Z,21.28
2022-08-09T02:34:13.590Z,21.33
2022-08-09T02:36:46.763Z,21.38
2022-08-09T02:39:33.455Z,21.37
2022-08-09T02:42:17.491Z,21.38
2022-08-09T02:44:50.553Z,21.35
2022-08-09T02:47:21.564Z,21.34
2022-08-09T02:50:01.623Z,21.32
2022-08-09T02:52:32.219Z,21.30
2022-08-09T02:55:03.192Z,21.27
2022-08-09T02:57:40.461Z,21.24
2022-08-09T03:00:21.589Z,21.21
2022-08-09T03:02:58.504Z,21.17
2022-08-09T03:05:16.613Z,21.14
2022-08-09T03:07:54.954Z,21.13
2022-08-09T03:10:16.448Z,21.09
2022-08-09T03:12:49.449Z,21.12
2022-08-09T03:15:16.367Z,21.14
2022-08-09T03:17:45.186Z,21.17
2022-08-09T03:20:15.420Z,21.19
2022-08-09T03:22:46.142Z,21.24
2022-08-09T03:25:26.000Z,21.28
2022-08-09T03:27:50.887Z,21.36
2022-08-09T03:30:30.196Z,21.41
2022-08-09T03:32:52.164Z,21.43
2022-08-09T03:35:24.770Z,21.44
2022-08-09T03:37:55.799Z,21.43
2022-08-09T03:40:21.841Z,21.42
2022-08-09T03:42:51.710Z,21.41
2022-08-09T03:46:03.126Z,21.40
2022-08-09T03:47:49.176Z,21.36
2022-08-09T03:50:18.863Z,21.31
2022-08-09T03:52:48.220Z,21.26
2022-08-09T03:55:19.108Z,21.24
2022-08-09T03:57:57.582Z,21.20
2022-08-09T04:00:20.282Z,21.21
2022-08-09T04:02:52.768Z,21.23
2022-08-09T04:05:27.467Z,21.26
2022-08-09T04:07:53.758Z,21.28
2022-08-09T04:10:21.599Z,21.32
2022-08-09T04:12:53.481Z,21.34
2022-08-09T04:15:42.612Z,21.35
2022-08-09T04:17:53.380Z,21.35
2022-08-09T04:20:22.525Z,21.35
2022-08-09T04:22:51.120Z,21.35
2022-08-09T04:25:19.667Z,21.32
2022-08-09T04:27:49.202Z,21.30
2022-08-09T04:30:20.907Z,21.25
2022-08-09T04:32:50.234Z,21.20
2022-08-09T04:35:18.546Z,21.21
2022-08-09T04:37:49.074Z,21.19
2022-08-09T04:40:19.409Z,21.15
2022-08-09T04:42:48.447Z,21.11
2022-08-09T04:45:20.419Z,21.12
2022-08-09T04:48:00.227Z,21.11
2022-08-09T04:50:16.683Z,21.14
2022-08-09T04:52:48.108Z,21.19
2022-08-09T04:55:16.092Z,21.24
2022-08-09T04:57:59.258Z,21.31
2022-08-09T05:00:16.673Z,21.39
2022-08-09T05:02:48.570Z,21.49
2022-08-09T05:05:15.114Z,21.57
2022-08-09T05:07:46.517Z,21.64
2022-08-09T05:10:14.297Z,21.71
2022-08-09T05:12:41.931Z,21.74
2022-08-09T05:15:11.835Z,21.75
2022-08-09T05:18:38.563Z,21.73
2022-08-09T05:20:10.221Z,21.68
2022-08-09T05:23:55.373Z,21.62
2022-08-09T05:25:10.065Z,21.57
2022-08-09T05:27:45.434Z,21.46
2022-08-09T05:30:09.865Z,21.37
2022-08-09T05:32:37.557Z,21.35
2022-08-09T05:37:50.504Z,21.39
2022-08-09T05:40:18.667Z,21.44
2022-08-09T05:42:47.446Z,21.47
2022-08-09T05:45:15.510Z,21.50
2022-08-09T05:47:50.848Z,21.55
2022-08-09T05:50:35.050Z,21.59
2022-08-09T05:52:44.329Z,21.63
2022-08-09T05:55:18.235Z,21.69
2022-08-09T05:57:44.680Z,21.78
2022-08-09T06:00:15.467Z,21.84
2022-08-09T06:02:46.682Z,21.92
2022-08-09T06:05:12.944Z,21.97
2022-08-09T06:07:40.656Z,22.00
2022-08-09T06:10:15.881Z,22.00
2022-08-09T06:12:40.204Z,21.98
2022-08-09T06:15:10.755Z,21.99
2022-08-09T06:17:39.040Z,21.97
2022-08-09T06:20:08.949Z,21.97
2022-08-09T06:22:36.997Z,21.96
2022-08-09T06:25:08.656Z,21.99
2022-08-09T06:27:43.138Z,22.02
2022-08-09T06:30:09.704Z,22.06
2022-08-09T06:32:59.733Z,22.11
2022-08-09T06:35:07.183Z,22.13
2022-08-09T06:37:50.713Z,22.18
2022-08-09T06:40:21.573Z,22.19
2022-08-09T06:42:45.158Z,22.21
2022-08-09T06:46:06.311Z,22.29
2022-08-09T06:47:41.910Z,22.36
2022-08-09T06:50:14.443Z,22.37
2022-08-09T06:52:45.696Z,22.43
2022-08-09T06:55:22.994Z,22.50
2022-08-09T06:58:02.623Z,22.51
2022-08-09T07:00:50.846Z,22.55
2022-08-09T07:02:50.944Z,22.59
2022-08-09T07:05:19.334Z,22.58
2022-08-09T07:08:00.884Z,22.59
2022-08-09T07:10:29.393Z,22.58
2022-08-09T07:12:57.063Z,22.57
2022-08-09T07:16:35.323Z,22.57
2022-08-09T07:17:52.824Z,22.58
2022-08-09T07:20:17.248Z,22.58
2022-08-09T07:22:53.223Z,22.62
2022-08-09T07:25:15.989Z,22.63
2022-08-09T07:27:53.483Z,22.68
2022-08-09T07:30:14.110Z,22.70
2022-08-09T07:32:42.663Z,22.75
2022-08-09T07:35:12.938Z,22.82
2022-08-09T07:37:45.836Z,22.88
2022-08-09T07:40:18.846Z,22.96
2022-08-09T07:42:59.252Z,23.02
2022-08-09T07:45:39.283Z,23.08
2022-08-09T07:48:04.477Z,23.16
2022-08-09T07:50:35.000Z,23.22
2022-08-09T07:53:02.801Z,23.24
2022-08-09T07:55:29.546Z,23.23
2022-08-09T07:57:58.948Z,23.23
2022-08-09T08:00:35.492Z,23.17
2022-08-09T08:03:00.084Z,23.17
2022-08-09T08:05:28.537Z,23.13
2022-08-09T08:09:00.877Z,23.10
2022-08-09T08:10:28.054Z,23.09
2022-08-09T08:12:57.700Z,23.10
2022-08-09T08:15:25.501Z,23.11
2022-08-09T08:17:57.937Z,23.12
2022-08-09T08:20:32.881Z,23.16
2022-08-09T08:23:15.984Z,23.21
2022-08-09T08:25:44.086Z,23.26
2022-08-09T08:28:05.790Z,23.27
2022-08-09T08:30:35.415Z,23.31
2022-08-09T08:33:04.437Z,23.32
2022-08-09T08:35:53.080Z,23.31
2022-08-09T08:38:04.849Z,23.27
2022-08-09T08:40:33.698Z,23.25
2022-08-09T08:43:05.316Z,23.24
2022-08-09T08:45:43.230Z,23.19
2022-08-09T08:48:12.040Z,23.10
2022-08-09T08:50:41.714Z,23.01
2022-08-09T08:53:16.048Z,22.93
2022-08-09T08:55:43.432Z,22.88
2022-08-09T08:58:11.720Z,22.85
2022-08-09T09:00:42.398Z,22.88
2022-08-09T09:03:22.668Z,22.91
2022-08-09T09:05:58.368Z,22.95
2022-08-09T09:08:29.322Z,23.01
2022-08-09T09:10:49.886Z,23.03
2022-08-09T09:13:20.464Z,23.06
2022-08-09T09:15:50.645Z,23.04
2022-08-09T09:18:20.024Z,23.03
2022-08-09T09:20:49.638Z,23.10
2022-08-09T09:23:40.138Z,23.14
2022-08-09T09:26:14.997Z,23.17
2022-08-09T09:29:04.543Z,23.22
2022-08-09T09:32:03.947Z,23.27
2022-08-09T09:33:56.627Z,23.26
2022-08-09T09:36:20.846Z,23.27
2022-08-09T09:38:56.412Z,23.24
2022-08-09T09:41:33.349Z,23.24
2022-08-09T09:44:11.944Z,23.27
2022-08-09T09:46:54.523Z,23.30
2022-08-09T09:49:56.202Z,23.35
2022-08-09T09:52:35.664Z,23.41
2022-08-09T09:54:42.923Z,23.47
2022-08-09T09:58:03.824Z,23.55
2022-08-09T09:59:54.358Z,23.63
2022-08-09T10:02:24.866Z,23.69
2022-08-09T10:05:09.751Z,23.77
2022-08-09T10:07:37.656Z,23.84
2022-08-09T10:10:07.989Z,23.93
2022-08-09T10:12:43.811Z,24.00
2022-08-09T10:15:17.443Z,24.02
2022-08-09T10:17:56.402Z,24.06
2022-08-09T10:20:35.746Z,24.10
2022-08-09T10:23:00.653Z,24.15
2022-08-09T10:25:34.814Z,24.18
2022-08-09T10:27:59.382Z,24.21
2022-08-09T10:32:04.270Z,24.21
2022-08-09T10:32:58.312Z,24.17
2022-08-09T10:35:27.781Z,24.17
2022-08-09T10:37:58.906Z,24.16
2022-08-09T10:40:35.028Z,24.19
2022-08-09T10:42:59.195Z,24.28
2022-08-09T10:45:31.521Z,24.37
2022-08-09T10:48:30.045Z,24.45
2022-08-09T10:51:17.492Z,24.56
2022-08-09T10:54:05.196Z,24.71
2022-08-09T10:56:38.467Z,24.87
2022-08-09T10:59:31.134Z,25.01
2022-08-09T11:03:11.831Z,25.17
2022-08-09T11:04:32.563Z,25.28
2022-08-09T11:07:05.934Z,25.34
2022-08-09T11:09:47.473Z,25.41
2022-08-09T11:12:29.922Z,25.50
2022-08-09T11:15:23.886Z,25.57
2022-08-09T11:17:53.767Z,25.62
2022-08-09T11:20:43.928Z,25.65
2022-08-09T11:23:13.148Z,25.73
2022-08-09T11:25:47.462Z,25.84
2022-08-09T11:28:38.381Z,25.85
2022-08-09T11:31:50.375Z,25.90
2022-08-09T11:34:19.619Z,26.01
2022-08-09T11:36:47.944Z,26.21
2022-08-09T11:39:16.674Z,26.36
2022-08-09T11:41:45.334Z,26.48
2022-08-09T11:44:13.562Z,26.62
2022-08-09T11:46:53.725Z,26.77
2022-08-09T11:50:53.921Z,26.83
2022-08-09T11:53:02.656Z,26.91
2022-08-09T11:55:53.392Z,27.01
2022-08-09T11:58:17.682Z,27.06
2022-08-09T12:00:53.066Z,27.06
2022-08-09T12:03:54.776Z,27.11
2022-08-09T12:05:57.073Z,27.15
2022-08-09T12:08:26.850Z,27.15
2022-08-09T12:10:59.829Z,27.23
2022-08-09T12:14:10.228Z,27.39
2022-08-09T12:16:30.377Z,27.65
2022-08-09T12:18:54.111Z,27.88
2022-08-09T12:21:37.222Z,28.03
2022-08-09T12:24:09.017Z,28.23
2022-08-09T12:28:59.481Z,28.45
2022-08-09T12:29:33.070Z,28.56
2022-08-09T12:32:04.833Z,28.63
2022-08-09T12:34:36.085Z,28.72
2022-08-09T12:37:09.508Z,28.83
2022-08-09T12:39:33.917Z,28.94
2022-08-09T12:42:16.224Z,29.05
2022-08-09T12:44:46.467Z,29.15
2022-08-09T12:47:14.491Z,29.21
2022-08-09T12:49:50.981Z,29.25
2022-08-09T12:52:15.789Z,29.29
2022-08-09T12:55:00.775Z,29.33
2022-08-09T12:57:42.954Z,29.30
2022-08-09T13:00:25.134Z,29.36
2022-08-09T13:03:05.990Z,29.49
2022-08-09T13:05:52.238Z,29.59
2022-08-09T13:08:39.860Z,29.74
2022-08-09T13:10:57.194Z,29.84
2022-08-09T13:13:38.303Z,29.90
2022-08-09T13:16:09.091Z,29.88
2022-08-09T13:18:53.894Z,29.92
2022-08-09T13:22:35.899Z,29.99
2022-08-09T13:24:16.525Z,29.99
2022-08-09T13:26:42.479Z,29.93
2022-08-09T13:29:17.626Z,29.85
2022-08-09T13:32:14.143Z,29.70
2022-08-09T13:34:40.196Z,29.55
2022-08-09T13:37:08.556Z,29.16
2022-08-09T13:41:46.433Z,29.16
2022-08-09T13:42:13.040Z,28.96
2022-08-09T13:44:45.765Z,28.82
2022-08-09T13:47:31.541Z,28.62
2022-08-09T13:49:57.296Z,28.42
2022-08-09T13:52:18.363Z,28.23
2022-08-09T13:54:58.882Z,28.08
2022-08-09T13:57:36.575Z,27.95
2022-08-09T13:59:45.016Z,27.84
2022-08-09T14:02:12.527Z,27.75
2022-08-09T14:04:49.471Z,27.68
2022-08-09T14:07:12.115Z,27.55
2022-08-09T14:09:40.183Z,27.42
2022-08-09T14:12:15.697Z,27.32
2022-08-09T14:14:37.819Z,27.23
2022-08-09T14:17:08.664Z,27.15
2022-08-09T14:19:38.105Z,27.03
2022-08-09T14:22:06.999Z,26.97
2022-08-09T14:24:36.520Z,26.90
2022-08-09T14:27:19.957Z,26.85
2022-08-09T14:30:35.034Z,26.79
2022-08-09T14:32:11.071Z,26.76
2022-08-09T14:34:36.220Z,26.71
2022-08-09T14:37:08.098Z,26.65
2022-08-09T14:39:45.718Z,26.61
2022-08-09T14:42:07.425Z,26.59
2022-08-09T14:44:48.976Z,26.53
2022-08-09T14:47:17.070Z,26.48
2022-08-09T14:49:40.083Z,26.37
2022-08-09T14:52:05.107Z,26.31
2022-08-09T14:54:34.040Z,26.25
2022-08-09T14:57:02.028Z,26.23
2022-08-09T14:59:31.374Z,26.16
2022-08-09T15:02:00.994Z,26.12
2022-08-09T15:04:30.501Z,26.04
2022-08-09T15:06:58.206Z,26.00
2022-08-09T15:10:03.238Z,25.94
2022-08-09T15:11:57.663Z,25.93
2022-08-09T15:14:25.337Z,25.88
2022-08-09T15:16:55.151Z,25.82
2022-08-09T15:19:26.026Z,25.78
2022-08-09T15:22:02.259Z,25.75
2022-08-09T15:24:27.055Z,25.69
2022-08-09T15:26:53.624Z,25.61
2022-08-09T15:30:48.303Z,25.52
2022-08-09T15:31:52.525Z,25.45
2022-08-09T15:34:34.360Z,25.40
2022-08-09T15:36:52.538Z,25.36
2022-08-09T15:39:20.643Z,25.34
2022-08-09T15:41:50.519Z,25.31
2022-08-09T15:44:19.678Z,25.29
2022-08-09T15:46:47.700Z,25.27
2022-08-09T15:49:22.682Z,25.22
2022-08-09T15:52:03.288Z,25.16
2022-08-09T15:54:19.458Z,25.13
2022-08-09T15:56:46.933Z,25.13
2022-08-09T15:59:16.505Z,25.10
2022-08-09T16:01:44.262Z,25.08
2022-08-09T16:04:13.471Z,25.08
2022-08-09T16:06:44.820Z,25.04
2022-08-09T16:09:10.955Z,24.99
2022-08-09T16:11:47.530Z,24.94
2022-08-09T16:14:13.746Z,24.91
2022-08-09T16:16:48.137Z,24.82
2022-08-09T16:19:13.543Z,24.73
2022-08-09T16:21:51.629Z,24.61
2022-08-09T16:24:30.007Z,24.52
2022-08-09T16:26:43.602Z,24.38
2022-08-09T16:29:15.423Z,24.32
2022-08-09T16:32:20.235Z,24.25
2022-08-09T16:34:17.419Z,24.19
2022-08-09T16:36:45.660Z,24.15
2022-08-09T16:39:14.260Z,24.09
2022-08-09T16:42:04.174Z,24.04
2022-08-09T16:44:13.317Z,24.02
2022-08-09T16:46:55.508Z,24.02
2022-08-09T16:49:26.926Z,24.00
2022-08-09T16:51:43.932Z,23.87
2022-08-09T16:54:34.626Z,23.70
2022-08-09T16:56:49.137Z,23.58
2022-08-09T16:59:12.716Z,23.48
2022-08-09T17:01:43.817Z,23.42
2022-08-09T17:04:10.107Z,23.38
2022-08-09T17:08:41.606Z,23.33
2022-08-09T17:09:44.465Z,23.32
2022-08-09T17:11:41.882Z,23.23
2022-08-09T17:14:26.704Z,23.18
2022-08-09T17:16:39.455Z,23.12
2022-08-09T17:19:08.008Z,23.08
2022-08-09T17:21:37.455Z,23.00
2022-08-09T17:24:27.071Z,22.95
2022-08-09T17:26:38.329Z,22.88
2022-08-09T17:29:05.194Z,22.79
2022-08-09T17:31:40.240Z,22.72
2022-08-09T17:34:04.089Z,22.64
2022-08-09T17:36:34.311Z,22.58
2022-08-09T17:39:03.659Z,22.57
2022-08-09T17:41:38.978Z,22.55
2022-08-09T17:44:38.371Z,22.53
2022-08-09T17:46:34.389Z,22.53
2022-08-09T17:49:00.520Z,22.52
2022-08-09T17:51:30.113Z,22.53
2022-08-09T17:53:59.285Z,22.55
2022-08-09T17:56:35.540Z,22.55
2022-08-09T17:59:11.546Z,22.55
2022-08-09T18:02:03.853Z,22.50
2022-08-09T18:04:02.877Z,22.48
2022-08-09T18:06:32.510Z,22.45
2022-08-09T18:09:04.577Z,22.41
2022-08-09T18:12:05.626Z,22.41
2022-08-09T18:14:14.701Z,22.45
2022-08-09T18:16:39.335Z,22.47
2022-08-09T18:21:01.227Z,22.48
2022-08-09T18:21:41.295Z,22.53
2022-08-09T18:24:10.591Z,22.56
2022-08-09T18:26:35.987Z,22.57
2022-08-09T18:30:42.345Z,22.56
2022-08-09T18:31:55.905Z,22.55
2022-08-09T18:34:04.587Z,22.52
2022-08-09T18:36:36.276Z,22.46
2022-08-09T18:39:03.313Z,22.40
2022-08-09T18:41:34.680Z,22.30
2022-08-09T18:44:10.617Z,22.21
2022-08-09T18:46:49.931Z,22.14
2022-08-09T18:49:03.672Z,22.07
2022-08-09T18:51:38.056Z,22.03
2022-08-09T18:54:08.545Z,21.99
2022-08-09T18:56:34.522Z,21.97
2022-08-09T18:59:03.552Z,21.97
2022-08-09T19:01:43.593Z,21.97
2022-08-09T19:04:08.074Z,21.99
2022-08-09T19:06:38.432Z,22.03
2022-08-09T19:09:06.794Z,22.00
2022-08-09T19:11:37.623Z,22.01
2022-08-09T19:14:07.108Z,21.99
2022-08-09T19:16:36.262Z,21.94
2022-08-09T19:19:25.856Z,21.87
2022-08-09T19:21:52.470Z,21.80
2022-08-09T19:24:35.612Z,21.72
2022-08-09T19:26:35.703Z,21.68
2022-08-09T19:29:15.053Z,21.63
2022-08-09T19:31:45.336Z,21.57
2022-08-09T19:34:07.274Z,21.44
2022-08-09T19:36:36.827Z,21.32
2022-08-09T19:39:05.724Z,21.22
2022-08-09T19:41:35.511Z,21.16
2022-08-09T19:44:03.695Z,21.13
2022-08-09T19:46:35.035Z,21.10
2022-08-09T19:50:06.831Z,21.08
2022-08-09T19:51:31.391Z,20.96
2022-08-09T19:54:00.855Z,20.90
2022-08-09T19:56:29.618Z,20.94
2022-08-09T19:59:39.586Z,21.01
2022-08-09T20:02:03.351Z,21.03
2022-08-09T20:04:17.067Z,20.99
2022-08-09T20:06:32.707Z,21.00
2022-08-09T20:09:00.540Z,21.03
2022-08-09T20:11:43.295Z,21.09
2022-08-09T20:13:58.358Z,21.13
2022-08-09T20:16:33.117Z,21.16
2022-08-09T20:19:42.580Z,21.13
2022-08-09T20:21:40.836Z,21.11
2022-08-09T20:23:54.569Z,21.10
2022-08-09T20:26:22.307Z,21.07
2022-08-09T20:28:50.106Z,21.08
2022-08-09T20:31:18.618Z,21.08
2022-08-09T20:33:46.649Z,21.08
2022-08-09T20:36:16.417Z,21.05
2022-08-09T20:39:18.712Z,21.05
2022-08-09T20:41:15.617Z,21.04
2022-08-09T20:43:44.898Z,21.06
2022-08-09T20:46:15.739Z,21.08
2022-08-09T20:48:44.252Z,21.10
2022-08-09T20:51:19.227Z,21.09
2022-08-09T20:53:42.547Z,21.10
2022-08-09T20:56:20.421Z,21.11
2022-08-09T20:58:43.479Z,21.13
2022-08-09T21:01:32.521Z,21.18
2022-08-09T21:05:49.640Z,21.21
2022-08-09T21:06:09.170Z,21.19
2022-08-09T21:08:38.722Z,21.17
2022-08-09T21:13:45.749Z,21.10
2022-08-09T21:16:06.622Z,21.04
2022-08-09T21:20:02.213Z,21.00
2022-08-09T21:21:17.077Z,20.96
2022-08-09T21:23:51.299Z,20.92
2022-08-09T21:26:04.955Z,20.88
2022-08-09T21:28:36.342Z,20.88
2022-08-09T21:31:18.079Z,20.88
2022-08-09T21:33:37.894Z,20.89
2022-08-09T21:36:06.201Z,20.89
2022-08-09T21:38:35.525Z,20.89
2022-08-09T21:41:04.559Z,20.92
2022-08-09T21:43:57.708Z,20.94
2022-08-09T21:46:05.654Z,20.97
2022-08-09T21:48:34.736Z,20.99
2022-08-09T21:51:02.534Z,21.03
2022-08-09T21:53:40.960Z,21.06
2022-08-09T21:56:00.233Z,21.09
2022-08-09T21:58:31.265Z,21.10
2022-08-09T22:00:59.041Z,21.11
2022-08-09T22:03:27.313Z,21.11
2022-08-09T22:05:57.834Z,21.08
2022-08-09T22:08:25.884Z,21.06
2022-08-09T22:11:50.100Z,21.05
2022-08-09T22:13:25.215Z,21.02
2022-08-09T22:15:54.822Z,20.99
2022-08-09T22:18:23.989Z,21.00
2022-08-09T22:20:52.800Z,21.00
2022-08-09T22:23:22.312Z,21.00
2022-08-09T22:26:05.979Z,21.02
2022-08-09T22:28:32.744Z,21.03
2022-08-09T22:30:50.670Z,21.02
2022-08-09T22:33:19.167Z,21.02
2022-08-09T22:36:02.592Z,21.04
2022-08-09T22:38:19.213Z,21.08
2022-08-09T22:40:48.678Z,21.09
2022-08-09T22:43:26.314Z,21.09
2022-08-09T22:48:18.406Z,21.10
2022-08-09T22:48:34.004Z,21.07
2022-08-09T22:50:52.774Z,21.08
2022-08-09T22:53:15.310Z,21.10
2022-08-09T22:56:29.611Z,21.08
2022-08-09T22:58:30.537Z,21.06
2022-08-09T23:00:41.928Z,21.05
2022-08-09T23:03:12.572Z,21.02
2022-08-09T23:05:39.462Z,21.00
2022-08-09T23:08:29.978Z,20.96
2022-08-09T23:10:56.646Z,20.92
2022-08-09T23:13:24.444Z,20.86
2022-08-09T23:16:02.679Z,20.85
2022-08-09T23:18:21.767Z,20.85
2022-08-09T23:20:49.468Z,20.86
2022-08-09T23:23:17.480Z,20.88
2022-08-09T23:25:45.113Z,20.92
2022-08-09T23:28:15.420Z,20.94
2022-08-09T23:30:51.221Z,20.99
2022-08-09T23:33:11.859Z,21.03
2022-08-09T23:36:04.700Z,21.06
2022-08-09T23:38:09.473Z,21.07
2022-08-09T23:40:37.043Z,21.07
2022-08-09T23:43:04.887Z,21.08
2022-08-09T23:45:36.863Z,21.11
2022-08-09T23:48:06.749Z,21.10
2022-08-09T23:50:31.487Z,21.02
2022-08-09T23:52:59.538Z,20.90
2022-08-09T23:55:28.953Z,20.78
2022-08-09T23:58:09.441Z,20.70
